Time;durP1;ratioP1;P1;durP2;ratioP2;P2;SDS_P1;SDS_P2;PMS_P1;PMS_P2;Temp;Humidity;BMP_temperature;BMP_pressure;BME280_temperature;BME280_humidity;BME280_pressure;Samples;Min_cycle;Max_cycle;Signal;HPM_P1;HPM_P2
2022/03/03 00:00:09;;;;;;;13.30;12.20;;;;;;;2.30;56.45;94752.69;5096335;28;20212;-64
2022/03/03 00:02:36;;;;;;;13.88;12.68;;;;;;;2.32;55.99;94753.16;5096230;28;20193;-64
2022/03/03 00:05:03;;;;;;;13.88;12.27;;;;;;;2.35;56.02;94754.47;5095775;28;20192;-64
2022/03/03 00:07:30;;;;;;;12.90;11.70;;;;;;;2.35;56.13;94757.19;5096352;28;20189;-64
2022/03/03 00:09:57;;;;;;;13.43;12.15;;;;;;;2.34;56.14;94744.72;5096706;28;20199;-64
2022/03/03 00:12:23;;;;;;;12.43;11.43;;;;;;;2.35;56.22;94754.47;5096030;28;20204;-64
2022/03/03 00:14:52;;;;;;;12.10;11.10;;;;;;;2.25;56.29;94739.22;5095858;28;20204;-64
2022/03/03 00:17:18;;;;;;;12.07;11.05;;;;;;;2.27;56.22;94738.88;5095457;28;20238;-64
2022/03/03 00:19:45;;;;;;;12.35;11.35;;;;;;;2.25;56.43;94741.94;5096438;28;20207;-64
2022/03/03 00:22:12;;;;;;;12.80;11.60;;;;;;;2.26;56.85;94740.00;5095713;28;20200;-64
2022/03/03 00:24:39;;;;;;;12.45;11.38;;;;;;;2.28;56.57;94746.72;5095200;28;20628;-64
2022/03/03 00:27:06;;;;;;;12.07;11.07;;;;;;;2.30;56.43;94739.06;5095405;28;20208;-64
2022/03/03 00:29:33;;;;;;;12.32;11.32;;;;;;;2.32;56.54;94739.56;5095013;28;20236;-64
2022/03/03 00:32:02;;;;;;;12.27;11.18;;;;;;;2.34;56.21;94733.81;5095905;28;20201;-64
2022/03/03 00:34:28;;;;;;;11.60;10.70;;;;;;;2.36;56.05;94734.31;5095872;28;20199;-64
2022/03/03 00:36:55;;;;;;;12.80;11.60;;;;;;;2.39;56.13;94736.41;5095372;28;20207;-64
2022/03/03 00:39:22;;;;;;;11.50;10.60;;;;;;;2.38;56.09;94732.88;5096063;28;20192;-64
2022/03/03 00:41:49;;;;;;;11.85;10.93;;;;;;;2.36;56.26;94732.41;5094754;28;20212;-64
2022/03/03 00:44:15;;;;;;;12.15;11.15;;;;;;;2.38;56.19;94735.63;5095736;28;20522;-64
2022/03/03 00:46:42;;;;;;;12.43;11.40;;;;;;;2.37;56.20;94731.28;5095298;28;20200;-64
2022/03/03 00:49:10;;;;;;;11.07;10.18;;;;;;;2.37;56.08;94730.50;5095635;28;20188;-64
2022/03/03 00:51:37;;;;;;;11.93;10.93;;;;;;;2.41;56.00;94728.75;5095849;28;20177;-64
2022/03/03 00:54:04;;;;;;;11.80;10.85;;;;;;;2.38;56.24;94732.09;5095574;28;20589;-64
2022/03/03 00:56:31;;;;;;;11.88;10.77;;;;;;;2.35;56.05;94730.78;5095998;28;20195;-64
2022/03/03 00:58:58;;;;;;;11.90;10.80;;;;;;;2.35;56.11;94727.25;5094954;28;20196;-64
2022/03/03 01:01:25;;;;;;;11.85;10.85;;;;;;;2.32;56.52;94725.16;5095563;28;20208;-64
2022/03/03 01:03:52;;;;;;;10.75;9.85;;;;;;;2.30;56.49;94728.19;5095382;28;20184;-64
2022/03/03 01:06:20;;;;;;;11.65;10.65;;;;;;;2.27;56.68;94728.81;5095727;28;20180;-64
2022/03/03 01:08:47;;;;;;;11.15;10.18;;;;;;;2.30;56.49;94722.75;5095622;28;20203;-64
2022/03/03 01:11:14;;;;;;;10.68;9.77;;;;;;;2.38;56.33;94732.09;5095572;28;20184;-64
2022/03/03 01:13:40;;;;;;;12.15;11.05;;;;;;;2.36;56.23;94716.09;5095520;28;20184;-64
2022/03/03 01:16:07;;;;;;;12.10;11.10;;;;;;;2.34;56.50;94723.75;5095231;28;20200;-64
2022/03/03 01:18:34;;;;;;;12.27;11.30;;;;;;;2.38;56.13;94723.94;5095288;28;20191;-65
2022/03/03 01:21:01;;;;;;;11.82;10.85;;;;;;;2.37;56.19;94714.97;5094542;28;20207;-65
2022/03/03 01:23:29;;;;;;;11.93;10.88;;;;;;;2.41;55.72;94715.16;5094452;28;20567;-64
2022/03/03 01:25:56;;;;;;;10.95;10.15;;;;;;;2.41;55.97;94718.66;5095062;28;20566;-64
2022/03/03 01:28:23;;;;;;;11.10;10.18;;;;;;;2.40;55.85;94713.53;5095527;28;20184;-64
2022/03/03 01:30:49;;;;;;;10.88;10.05;;;;;;;2.38;55.96;94711.13;5094226;28;20232;-64
2022/03/03 01:33:16;;;;;;;11.30;10.40;;;;;;;2.39;56.15;94707.28;5095036;28;20185;-64
2022/03/03 01:35:43;;;;;;;11.00;10.10;;;;;;;2.41;56.30;94706.97;5094290;28;20192;-64
2022/03/03 01:38:10;;;;;;;11.15;10.35;;;;;;;2.43;56.31;94710.19;5095276;28;20192;-64
2022/03/03 01:40:38;;;;;;;11.70;10.75;;;;;;;2.44;56.11;94694.69;5095191;28;20204;-64
2022/03/03 01:43:05;;;;;;;12.07;11.18;;;;;;;2.45;56.19;94701.72;5095152;28;20524;-64
2022/03/03 01:45:33;;;;;;;11.85;10.88;;;;;;;2.46;56.63;94695.16;5095104;28;20176;-64
2022/03/03 01:48:00;;;;;;;12.90;11.70;;;;;;;2.47;56.42;94694.84;5095151;28;20189;-64
2022/03/03 01:50:27;;;;;;;13.40;12.15;;;;;;;2.47;56.28;94692.13;5095161;28;20207;-64
2022/03/03 01:52:54;;;;;;;13.13;12.05;;;;;;;2.45;56.55;94690.81;5095277;28;20180;-64
2022/03/03 01:55:21;;;;;;;13.10;12.00;;;;;;;2.45;56.91;94690.81;5095075;28;20191;-64
2022/03/03 01:57:50;;;;;;;13.02;11.88;;;;;;;2.45;56.64;94693.56;5095601;28;20215;-64
2022/03/03 02:00:18;;;;;;;12.95;11.85;;;;;;;2.44;56.64;94687.31;5099290;28;20207;-64
2022/03/03 02:02:45;;;;;;;12.82;11.82;;;;;;;2.40;56.65;94686.31;5098398;28;20204;-64
2022/03/03 02:05:12;;;;;;;13.60;12.50;;;;;;;2.37;57.02;94684.22;5099063;28;20208;-64
2022/03/03 02:07:39;;;;;;;13.93;12.60;;;;;;;2.38;56.77;94683.91;5099073;28;20184;-64
2022/03/03 02:10:06;;;;;;;12.48;11.48;;;;;;;2.38;56.91;94686.63;5098261;28;20203;-64
2022/03/03 02:12:33;;;;;;;13.30;12.20;;;;;;;2.37;56.75;94682.28;5097706;28;20199;-64
2022/03/03 02:15:02;;;;;;;12.60;11.60;;;;;;;2.37;56.87;94682.28;5098023;28;20206;-64
2022/03/03 02:17:28;;;;;;;13.60;12.48;;;;;;;2.31;56.94;94680.81;5097656;28;20192;-64
2022/03/03 02:19:55;;;;;;;12.93;11.93;;;;;;;2.28;57.33;94681.41;5098798;28;20285;-64
2022/03/03 02:22:23;;;;;;;13.50;12.38;;;;;;;2.29;57.58;94688.50;5097943;28;20202;-64
2022/03/03 02:24:50;;;;;;;14.07;12.82;;;;;;;2.30;57.37;94689.28;5098054;28;20511;-63
2022/03/03 02:27:17;;;;;;;13.82;12.73;;;;;;;2.30;57.42;94676.50;5098683;28;20206;-63
2022/03/03 02:29:44;;;;;;;13.68;12.50;;;;;;;2.34;57.75;94677.47;5097397;28;20571;-63
2022/03/03 02:32:11;;;;;;;13.93;12.80;;;;;;;2.35;57.67;94681.78;5098191;28;20199;-63
2022/03/03 02:34:38;;;;;;;12.98;12.02;;;;;;;2.29;57.57;94682.25;5097695;28;20196;-63
2022/03/03 02:37:06;;;;;;;13.40;12.20;;;;;;;2.25;57.73;94679.34;5098256;28;20181;-63
2022/03/03 02:39:34;;;;;;;12.93;11.93;;;;;;;2.24;57.75;94677.72;5098346;28;20207;-63
2022/03/03 02:42:01;;;;;;;13.73;12.50;;;;;;;2.30;57.82;94675.69;5097607;28;20220;-63
2022/03/03 02:44:28;;;;;;;14.43;13.27;;;;;;;2.25;58.12;94683.97;5098397;28;20192;-63
2022/03/03 02:46:54;;;;;;;13.93;12.73;;;;;;;2.22;57.77;94674.50;5098028;28;20192;-64
2022/03/03 02:49:21;;;;;;;13.65;12.50;;;;;;;2.19;58.31;94674.34;5098264;28;20189;-64
2022/03/03 02:51:48;;;;;;;13.07;12.07;;;;;;;2.25;58.35;94686.69;5098222;28;20181;-64
2022/03/03 02:54:15;;;;;;;14.00;12.90;;;;;;;2.25;58.35;94678.50;5097864;28;20197;-64
2022/03/03 02:59:27;;;;;;;13.65;12.55;;;;;;;2.29;58.25;94683.06;5097995;28;20208;-64
2022/03/03 03:01:54;;;;;;;14.43;13.15;;;;;;;2.28;58.67;94686.88;5097611;28;20212;-64
2022/03/03 03:04:21;;;;;;;14.45;13.25;;;;;;;2.29;58.26;94684.97;5097977;28;20224;-64
2022/03/03 03:06:47;;;;;;;13.85;12.65;;;;;;;2.26;58.52;94680.16;5098066;28;20200;-64
2022/03/03 03:09:14;;;;;;;14.40;13.05;;;;;;;2.21;58.81;94683.78;5096276;28;20200;-64
2022/03/03 03:11:43;;;;;;;13.93;12.80;;;;;;;2.22;58.92;94687.31;5097678;28;20210;-64
2022/03/03 03:14:09;;;;;;;14.40;13.20;;;;;;;2.17;59.05;94685.50;5096847;28;20192;-64
2022/03/03 03:16:36;;;;;;;13.98;12.85;;;;;;;2.12;59.09;94677.47;5097750;28;20185;-64
2022/03/03 03:19:03;;;;;;;14.77;13.57;;;;;;;2.13;59.40;94684.53;5096940;28;20205;-64
2022/03/03 03:21:30;;;;;;;13.43;12.32;;;;;;;2.16;59.06;94683.91;5096579;28;20230;-64
2022/03/03 03:23:57;;;;;;;14.20;13.00;;;;;;;2.20;58.98;94679.44;5097559;28;20184;-64
2022/03/03 03:26:24;;;;;;;14.25;12.98;;;;;;;2.22;59.09;94681.88;5097469;28;20593;-64
2022/03/03 03:28:52;;;;;;;13.52;12.32;;;;;;;2.18;59.02;94684.41;5096599;28;20237;-64
2022/03/03 03:31:20;;;;;;;14.38;13.07;;;;;;;2.20;58.95;94684.09;5096241;28;20228;-64
2022/03/03 03:33:47;;;;;;;13.43;12.43;;;;;;;2.16;59.05;94682.00;5096150;28;20200;-64
2022/03/03 03:36:13;;;;;;;14.25;13.02;;;;;;;2.17;59.01;94691.75;5096775;28;20209;-64
2022/03/03 03:38:40;;;;;;;14.07;12.88;;;;;;;2.21;59.14;94678.31;5096781;28;20204;-65
2022/03/03 03:41:07;;;;;;;14.02;12.82;;;;;;;2.21;59.07;94689.22;5097377;28;20235;-65
2022/03/03 03:43:34;;;;;;;14.43;13.23;;;;;;;2.22;58.83;94685.41;5097170;28;20249;-65
2022/03/03 03:46:02;;;;;;;15.48;14.07;;;;;;;2.17;58.96;94680.88;5096688;28;20192;-65
2022/03/03 03:48:29;;;;;;;14.10;12.90;;;;;;;2.16;58.89;94676.53;5096599;28;20507;-65
2022/03/03 03:50:56;;;;;;;14.38;13.20;;;;;;;2.16;58.95;94681.19;5096846;28;20172;-65
2022/03/03 03:53:23;;;;;;;14.85;13.65;;;;;;;2.16;59.19;94678.47;5096955;28;20177;-65
2022/03/03 03:55:51;;;;;;;14.20;13.10;;;;;;;2.11;59.18;94681.31;5096299;28;20192;-65
2022/03/03 03:58:18;;;;;;;15.15;13.75;;;;;;;2.10;59.16;94683.22;5096118;28;20204;-65
2022/03/03 04:00:44;;;;;;;15.45;14.15;;;;;;;2.13;59.15;94685.31;5095907;28;20196;-65
2022/03/03 04:03:13;;;;;;;15.13;13.82;;;;;;;2.16;59.27;94678.47;5095756;28;20196;-65
2022/03/03 04:05:39;;;;;;;13.80;12.60;;;;;;;2.14;59.09;94683.41;5095516;28;20206;-65
2022/03/03 04:08:06;;;;;;;14.25;13.05;;;;;;;2.15;59.03;94671.41;5096449;28;20191;-65
2022/03/03 04:10:33;;;;;;;14.43;13.18;;;;;;;2.14;59.25;94667.91;5095806;28;20207;-65
2022/03/03 04:13:00;;;;;;;15.50;14.23;;;;;;;2.14;59.33;94661.63;5095867;28;20196;-65
2022/03/03 04:15:27;;;;;;;15.35;13.95;;;;;;;2.15;59.71;94665.97;5095649;28;20537;-64
2022/03/03 04:17:53;;;;;;;14.13;12.95;;;;;;;2.15;59.41;94657.81;5095582;28;20200;-64
2022/03/03 04:20:22;;;;;;;15.27;13.88;;;;;;;2.15;59.22;94663.25;5096179;28;20184;-65
2022/03/03 04:22:50;;;;;;;14.93;13.73;;;;;;;2.17;59.38;94664.53;5095096;28;20200;-65
2022/03/03 04:25:17;;;;;;;14.43;13.18;;;;;;;2.19;59.26;94668.88;5095697;28;20197;-65
2022/03/03 04:27:44;;;;;;;14.68;13.30;;;;;;;2.15;59.13;94671.41;5096697;28;20616;-65
2022/03/03 04:30:12;;;;;;;14.50;13.30;;;;;;;2.15;59.35;94677.66;5095937;28;20236;-65
2022/03/03 04:32:39;;;;;;;14.45;13.25;;;;;;;2.13;59.21;94666.28;5096419;28;20188;-65
2022/03/03 04:35:06;;;;;;;14.57;13.38;;;;;;;2.12;59.08;94664.69;5095696;28;20188;-65
2022/03/03 04:37:35;;;;;;;14.60;13.40;;;;;;;2.11;59.34;94668.50;5096209;28;20189;-65
2022/03/03 04:40:02;;;;;;;14.93;13.63;;;;;;;2.15;58.98;94666.78;5095353;28;20547;-65
2022/03/03 04:42:28;;;;;;;15.45;14.15;;;;;;;2.16;59.23;94662.13;5096153;28;20204;-65
2022/03/03 04:44:55;;;;;;;15.35;13.88;;;;;;;2.15;58.87;94655.91;5095884;28;20180;-65
2022/03/03 04:47:22;;;;;;;14.88;13.68;;;;;;;2.09;58.96;94651.69;5095636;28;20207;-65
2022/03/03 04:49:49;;;;;;;14.70;13.50;;;;;;;2.07;59.10;94655.81;5096400;28;20285;-65
2022/03/03 04:52:16;;;;;;;14.63;13.40;;;;;;;2.08;59.23;94668.34;5096139;28;20259;-64
2022/03/03 04:54:44;;;;;;;16.40;15.00;;;;;;;2.07;58.96;94655.81;5095834;28;20200;-64
2022/03/03 04:57:11;;;;;;;15.27;13.98;;;;;;;2.10;58.77;94661.44;5095694;28;20199;-64
2022/03/03 04:59:38;;;;;;;14.20;13.00;;;;;;;2.09;58.63;94661.78;5094550;28;20200;-64
2022/03/03 05:02:05;;;;;;;15.40;14.10;;;;;;;2.07;59.13;94664.81;5095690;28;20201;-64
2022/03/03 05:04:32;;;;;;;14.43;13.23;;;;;;;2.09;59.17;94665.28;5095786;28;20185;-65
2022/03/03 05:06:58;;;;;;;14.55;13.30;;;;;;;2.10;58.93;94661.44;5095714;28;20189;-65
2022/03/03 05:09:25;;;;;;;13.82;12.63;;;;;;;2.08;58.94;94660.97;5095319;28;20192;-65
2022/03/03 05:11:53;;;;;;;14.25;13.00;;;;;;;2.10;58.78;94664.16;5095624;28;20250;-65
2022/03/03 05:14:20;;;;;;;14.23;12.93;;;;;;;2.10;58.48;94661.44;5094673;28;20209;-65
2022/03/03 05:16:47;;;;;;;13.90;12.80;;;;;;;2.08;58.69;94668.34;5094769;28;20207;-65
2022/03/03 05:19:14;;;;;;;14.30;13.00;;;;;;;2.10;58.71;94666.88;5094704;28;20305;-65
2022/03/03 05:21:41;;;;;;;14.32;13.13;;;;;;;2.12;58.57;94661.94;5095460;28;20211;-65
2022/03/03 05:24:08;;;;;;;13.93;12.82;;;;;;;2.12;58.51;94659.22;5095454;28;20185;-68
2022/03/03 05:26:34;;;;;;;13.70;12.60;;;;;;;2.14;58.48;94667.91;5095354;28;20253;-66
2022/03/03 05:29:03;;;;;;;14.13;12.88;;;;;;;2.15;58.11;94665.97;5094512;28;20231;-65
2022/03/03 05:31:29;;;;;;;14.65;13.35;;;;;;;2.16;58.04;94662.13;5094801;28;20239;-65
2022/03/03 05:33:56;;;;;;;14.98;13.68;;;;;;;2.19;58.25;94666.16;5095348;28;20188;-65
2022/03/03 05:36:25;;;;;;;15.32;14.00;;;;;;;2.21;58.36;94675.59;5095040;28;20188;-65
2022/03/03 05:38:54;;;;;;;15.20;13.80;;;;;;;2.24;58.08;94666.03;5095113;28;20195;-65
2022/03/03 05:41:20;;;;;;;14.80;13.50;;;;;;;2.21;57.63;94670.16;5094873;28;20181;-65
2022/03/03 05:43:48;;;;;;;15.25;13.75;;;;;;;2.15;57.79;94669.50;5094547;28;20200;-65
2022/03/03 05:46:17;;;;;;;14.52;13.18;;;;;;;2.20;57.78;94667.75;5095148;28;20195;-65
2022/03/03 05:48:43;;;;;;;14.55;13.35;;;;;;;2.20;57.72;94667.75;5093935;28;20204;-65
2022/03/03 05:51:11;;;;;;;14.90;13.70;;;;;;;2.24;57.48;94666.84;5094379;28;20207;-65
2022/03/03 05:53:38;;;;;;;14.95;13.65;;;;;;;2.24;57.50;94660.59;5095156;28;20204;-65
2022/03/03 05:56:09;;;;;;;15.60;14.18;;;;;;;2.23;57.70;94667.94;5094809;28;20200;-65
2022/03/03 05:58:41;;;;;;;14.32;13.00;;;;;;;2.24;57.59;94669.56;5095123;28;20200;-65
2022/03/03 06:01:10;;;;;;;14.45;13.23;;;;;;;2.23;57.74;94673.41;5095077;28;20534;-65
2022/03/03 06:03:38;;;;;;;14.88;13.57;;;;;;;2.21;57.49;94672.09;5095102;28;20184;-65
2022/03/03 06:06:10;;;;;;;15.60;14.23;;;;;;;2.21;57.36;94672.88;5095065;28;20184;-65
2022/03/03 06:08:41;;;;;;;15.93;14.60;;;;;;;2.22;57.58;94679.16;5095008;28;20517;-65
2022/03/03 06:11:13;;;;;;;15.50;14.07;;;;;;;2.25;57.33;94684.78;5094035;28;20258;-66
2022/03/03 06:13:46;;;;;;;15.30;14.10;;;;;;;2.33;57.25;94675.88;5094031;28;20250;-65
2022/03/03 06:16:17;;;;;;;16.38;14.98;;;;;;;2.37;56.89;94681.50;5094933;28;20207;-65
2022/03/03 06:18:46;;;;;;;16.02;14.65;;;;;;;2.39;56.75;94677.34;5094916;28;20188;-64
2022/03/03 06:21:12;;;;;;;15.38;14.07;;;;;;;2.44;56.74;94673.69;5095009;28;20200;-64
2022/03/03 06:23:39;;;;;;;16.08;14.57;;;;;;;2.49;56.47;94670.84;5093862;28;20219;-65
2022/03/03 06:26:08;;;;;;;15.80;14.50;;;;;;;2.55;56.03;94674.25;5094015;28;20204;-66
2022/03/03 06:28:35;;;;;;;15.55;14.18;;;;;;;2.57;55.78;94670.06;5094225;28;20202;-65
2022/03/03 06:31:02;;;;;;;15.23;13.93;;;;;;;2.63;55.61;94670.75;5094369;28;20236;-65
2022/03/03 06:33:29;;;;;;;15.27;13.98;;;;;;;2.64;55.35;94673.16;5093910;28;20196;-65
2022/03/03 06:35:58;;;;;;;16.00;14.50;;;;;;;2.65;55.19;94669.34;5093803;28;20636;-65
2022/03/03 06:38:24;;;;;;;15.25;13.82;;;;;;;2.73;55.01;94675.13;5094759;28;20184;-65
2022/03/03 06:40:53;;;;;;;14.57;13.27;;;;;;;2.69;55.07;94677.69;5094480;28;20271;-65
2022/03/03 06:43:20;;;;;;;16.17;14.70;;;;;;;2.72;54.66;94677.03;5093395;28;20216;-65
2022/03/03 06:45:47;;;;;;;15.75;14.35;;;;;;;2.77;54.77;94681.56;5096100;28;20208;-65
2022/03/03 06:48:14;;;;;;;14.88;13.68;;;;;;;2.78;54.52;94678.53;5098520;28;20192;-65
2022/03/03 06:50:42;;;;;;;14.52;13.05;;;;;;;2.81;54.44;94677.91;5098318;28;20185;-65
2022/03/03 06:53:11;;;;;;;13.15;11.77;;;;;;;2.88;54.13;94674.72;5098330;28;20185;-64
2022/03/03 06:55:39;;;;;;;13.38;11.98;;;;;;;2.87;53.99;94678.56;5098140;28;20197;-63
2022/03/03 06:58:06;;;;;;;13.70;12.40;;;;;;;2.85;53.63;94678.06;5097487;28;20206;-63
2022/03/03 07:00:34;;;;;;;13.20;12.00;;;;;;;2.71;54.01;94680.09;5097605;28;20203;-64
2022/03/03 07:03:01;;;;;;;12.90;11.70;;;;;;;2.71;54.32;94689.06;5097315;28;20212;-63
2022/03/03 07:05:30;;;;;;;13.40;12.10;;;;;;;2.77;54.07;94679.66;5097984;28;20184;-64
2022/03/03 07:07:57;;;;;;;13.88;12.45;;;;;;;2.74;53.40;94691.16;5097984;28;20246;-64
2022/03/03 07:10:26;;;;;;;15.23;13.82;;;;;;;2.71;53.74;94686.31;5098633;28;20188;-64
2022/03/03 07:12:55;;;;;;;16.48;15.07;;;;;;;2.73;53.70;94686.84;5099229;28;20177;-64
2022/03/03 07:15:23;;;;;;;15.82;14.25;;;;;;;2.81;53.40;94688.78;5098646;28;20246;-67
2022/03/03 07:17:51;;;;;;;15.63;14.23;;;;;;;2.85;53.13;94692.50;5099767;28;20193;-64
2022/03/03 07:20:19;;;;;;;15.50;14.10;;;;;;;2.91;53.11;94693.19;5098016;28;20220;-64
2022/03/03 07:23:00;;;;;;;15.48;14.13;;;;;;;2.99;52.93;94688.88;5098106;28;20224;-64
2022/03/03 07:25:33;;;;;;;15.95;14.55;;;;;;;3.04;52.71;94684.06;5097521;28;20616;-64
2022/03/03 07:28:02;;;;;;;16.27;14.68;;;;;;;3.11;52.83;94684.44;5098683;28;20181;-64
2022/03/03 07:30:30;;;;;;;16.23;14.82;;;;;;;3.28;52.70;94688.34;5098927;28;20232;-64
2022/03/03 07:33:00;;;;;;;16.05;14.57;;;;;;;3.43;51.93;94687.91;5097697;28;20235;-64
2022/03/03 07:35:27;;;;;;;15.77;14.40;;;;;;;3.57;51.52;94679.59;5097946;28;20200;-64
2022/03/03 07:37:57;;;;;;;16.98;15.48;;;;;;;3.68;51.80;94682.81;5098794;28;20188;-64
2022/03/03 07:40:29;;;;;;;15.57;14.18;;;;;;;3.64;51.33;94679.13;5097457;28;20199;-64
2022/03/03 07:42:57;;;;;;;15.07;13.73;;;;;;;3.64;50.99;94673.69;5096832;28;20305;-64
2022/03/03 07:45:25;;;;;;;14.23;13.00;;;;;;;3.60;51.20;94679.75;5095782;28;20196;-64
2022/03/03 07:47:54;;;;;;;15.32;13.90;;;;;;;3.67;51.11;94676.56;5096472;28;20299;-64
2022/03/03 07:50:22;;;;;;;15.32;14.02;;;;;;;3.72;51.24;94684.59;5096068;28;20257;-64
2022/03/03 07:52:50;;;;;;;14.65;13.27;;;;;;;3.69;50.75;94690.69;5096592;28;20195;-64
2022/03/03 07:55:17;;;;;;;14.77;13.50;;;;;;;3.60;50.91;94687.16;5095863;28;20196;-64
2022/03/03 07:57:48;;;;;;;15.30;13.90;;;;;;;3.62;51.40;94685.69;5095846;28;20204;-64
2022/03/03 08:00:15;;;;;;;14.75;13.45;;;;;;;3.66;50.97;94690.50;5096807;28;20198;-64
2022/03/03 08:02:43;;;;;;;15.10;13.70;;;;;;;3.71;51.03;94691.19;5096919;28;20207;-64
2022/03/03 08:05:11;;;;;;;16.70;15.30;;;;;;;3.73;50.85;94685.38;5095910;28;20605;-64
2022/03/03 08:07:41;;;;;;;17.15;15.50;;;;;;;3.68;50.77;94685.56;5096689;28;20245;-64
2022/03/03 08:10:10;;;;;;;14.77;13.45;;;;;;;3.67;50.99;94687.47;5095330;28;20613;-64
2022/03/03 08:12:38;;;;;;;15.10;13.88;;;;;;;3.74;50.81;94679.63;5096755;28;20177;-64
2022/03/03 08:15:07;;;;;;;14.68;13.48;;;;;;;3.76;50.61;94692.94;5096503;28;20184;-64
2022/03/03 08:17:35;;;;;;;15.27;13.95;;;;;;;3.74;50.47;94685.09;5096556;28;20185;-64
2022/03/03 08:20:04;;;;;;;13.82;12.63;;;;;;;3.76;50.40;94684.75;5095436;28;20200;-64
2022/03/03 08:22:31;;;;;;;15.25;13.85;;;;;;;3.87;50.59;94683.31;5096115;28;20200;-64
2022/03/03 08:24:58;;;;;;;15.73;14.38;;;;;;;3.93;50.42;94686.72;5096113;28;20187;-64
2022/03/03 08:27:26;;;;;;;15.70;14.43;;;;;;;3.96;50.39;94680.59;5095481;28;20204;-63
2022/03/03 08:29:53;;;;;;;14.68;13.57;;;;;;;4.00;50.26;94684.31;5096013;28;20232;-64
2022/03/03 08:32:23;;;;;;;14.82;13.63;;;;;;;4.08;50.18;94687.03;5096354;28;20265;-64
2022/03/03 08:34:59;;;;;;;15.88;14.23;;;;;;;4.06;50.03;94680.28;5095195;28;20200;-64
2022/03/03 08:37:30;;;;;;;15.60;14.20;;;;;;;4.13;50.15;94677.88;5095186;28;20192;-64
2022/03/03 08:39:59;;;;;;;15.90;14.50;;;;;;;4.12;49.91;94680.94;5095913;28;20195;-64
2022/03/03 08:42:30;;;;;;;15.70;14.40;;;;;;;4.18;50.32;94677.72;5094942;28;20216;-64
2022/03/03 08:45:02;;;;;;;17.45;15.77;;;;;;;4.30;50.00;94685.25;5095189;28;20647;-64
2022/03/03 08:47:31;;;;;;;16.63;15.15;;;;;;;4.39;49.96;94690.69;5095218;28;20192;-65
2022/03/03 08:50:01;;;;;;;15.48;14.07;;;;;;;4.39;48.93;94683.31;5095183;28;20198;-64
2022/03/03 08:52:27;;;;;;;14.82;13.32;;;;;;;4.33;49.29;94685.41;5095086;28;20197;-64
2022/03/03 08:54:54;;;;;;;14.52;13.25;;;;;;;4.32;49.65;94675.63;5095154;28;20218;-64
2022/03/03 08:57:21;;;;;;;14.40;13.13;;;;;;;4.27;49.48;94683.16;5094459;28;20200;-64
2022/03/03 08:59:48;;;;;;;13.60;12.35;;;;;;;4.32;49.63;94683.81;5094792;28;20257;-64
2022/03/03 09:02:17;;;;;;;14.68;13.35;;;;;;;4.39;49.27;94674.31;5095593;28;20200;-64
2022/03/03 09:04:46;;;;;;;14.88;13.57;;;;;;;4.46;49.42;94666.44;5094685;28;20623;-64
2022/03/03 09:07:13;;;;;;;12.55;11.35;;;;;;;4.74;53.44;94677.78;5094007;28;20193;-63
2022/03/03 09:09:40;;;;;;;13.80;12.40;;;;;;;4.94;53.23;94676.28;5095304;28;20483;-63
2022/03/03 09:12:08;;;;;;;13.85;12.65;;;;;;;5.06;53.94;94681.88;5095629;28;20188;-63
2022/03/03 09:14:35;;;;;;;14.43;13.00;;;;;;;4.80;49.82;94677.31;5095683;28;20180;-63
2022/03/03 09:17:02;;;;;;;13.95;12.75;;;;;;;4.55;51.31;94673.50;5095267;28;20181;-63
2022/03/03 09:19:29;;;;;;;14.32;13.02;;;;;;;4.39;51.92;94669.66;5095387;28;20504;-63
2022/03/03 09:21:57;;;;;;;14.77;13.38;;;;;;;4.29;52.91;94675.47;5095262;28;20674;-63
2022/03/03 09:24:24;;;;;;;15.40;13.80;;;;;;;4.19;52.58;94667.59;5095035;28;20209;-63
2022/03/03 09:26:51;;;;;;;14.40;13.10;;;;;;;4.15;53.23;94669.38;5094327;28;20265;-63
2022/03/03 09:29:19;;;;;;;14.32;12.98;;;;;;;4.18;55.06;94677.72;5094235;28;20200;-63
2022/03/03 09:31:46;;;;;;;14.50;13.10;;;;;;;4.24;53.00;94675.63;5094657;28;20299;-63
2022/03/03 09:34:13;;;;;;;13.50;12.40;;;;;;;4.21;52.23;94670.78;5095261;28;20267;-63
2022/03/03 09:36:40;;;;;;;14.10;12.90;;;;;;;4.12;52.76;94681.72;5093909;28;20291;-63
2022/03/03 09:39:08;;;;;;;13.77;12.57;;;;;;;4.08;51.86;94681.56;5094204;28;20200;-63
2022/03/03 09:41:35;;;;;;;13.20;12.07;;;;;;;4.05;52.43;94673.22;5095161;28;20184;-63
2022/03/03 09:44:02;;;;;;;14.05;12.85;;;;;;;4.07;51.67;94668.25;5094758;28;20200;-63
2022/03/03 09:46:29;;;;;;;13.88;12.65;;;;;;;4.12;53.90;94665.34;5095104;28;20188;-63
2022/03/03 09:48:55;;;;;;;13.45;12.13;;;;;;;4.15;53.18;94662.00;5094376;28;20192;-63
2022/03/03 09:51:22;;;;;;;13.93;12.73;;;;;;;4.24;52.65;94654.56;5095077;28;20200;-63
2022/03/03 09:53:51;;;;;;;13.63;12.52;;;;;;;4.30;51.65;94652.50;5093975;28;20200;-63
2022/03/03 09:56:19;;;;;;;13.93;12.65;;;;;;;4.34;50.77;94662.44;5094251;28;20632;-63
2022/03/03 09:58:46;;;;;;;15.48;13.45;;;;;;;4.41;51.87;94658.44;5094873;28;20184;-63
2022/03/03 10:01:13;;;;;;;13.43;12.13;;;;;;;4.45;52.49;94657.44;5093882;28;20196;-63
2022/03/03 10:03:41;;;;;;;13.05;11.90;;;;;;;4.53;53.90;94659.34;5094730;28;20204;-63
2022/03/03 10:06:12;;;;;;;13.07;11.93;;;;;;;4.63;52.92;94658.22;5095444;28;20185;-63
2022/03/03 10:08:38;;;;;;;14.90;13.50;;;;;;;4.63;50.56;94651.94;5094338;28;20203;-63
2022/03/03 10:11:08;;;;;;;12.77;11.70;;;;;;;4.65;51.90;94647.78;5094752;28;20188;-63
2022/03/03 10:13:50;;;;;;;13.27;12.05;;;;;;;4.66;51.33;94646.66;5094850;28;20173;-63
2022/03/03 10:16:23;;;;;;;12.88;11.77;;;;;;;4.68;52.57;94649.84;5094995;28;20204;-63
2022/03/03 10:19:04;;;;;;;13.27;12.07;;;;;;;4.65;53.00;94658.72;5095720;28;20185;-63
2022/03/03 10:21:32;;;;;;;13.00;11.90;;;;;;;4.67;51.93;94655.63;5097896;28;20200;-63
2022/03/03 10:24:00;;;;;;;13.85;12.43;;;;;;;4.69;52.18;94651.47;5097817;28;20223;-63
2022/03/03 10:26:38;;;;;;;13.07;12.02;;;;;;;4.69;50.61;94654.19;5098780;28;20204;-63
2022/03/03 10:29:16;;;;;;;12.63;11.48;;;;;;;4.70;51.03;94655.78;5098763;28;20184;-63
2022/03/03 10:31:47;;;;;;;13.95;12.65;;;;;;;4.76;51.49;94659.97;5098626;28;20214;-63
2022/03/03 10:34:17;;;;;;;13.63;12.32;;;;;;;4.75;52.11;94652.88;5097726;28;20196;-63
2022/03/03 10:36:43;;;;;;;13.65;12.45;;;;;;;4.72;51.68;94653.53;5098230;28;20188;-63
2022/03/03 10:39:10;;;;;;;13.73;12.50;;;;;;;4.76;51.78;94651.75;5097807;28;20203;-63
2022/03/03 10:41:40;;;;;;;12.80;11.65;;;;;;;4.66;50.89;94641.19;5097507;28;20196;-63
2022/03/03 10:44:10;;;;;;;13.20;11.98;;;;;;;4.66;51.77;94643.91;5098373;28;20212;-63
2022/03/03 10:46:38;;;;;;;13.30;12.20;;;;;;;4.72;53.50;94644.53;5097577;28;20277;-63
2022/03/03 10:49:19;;;;;;;13.50;12.30;;;;;;;4.74;51.18;94631.34;5098401;28;20189;-63
2022/03/03 10:51:46;;;;;;;14.20;12.77;;;;;;;4.70;52.32;94636.66;5098373;28;20184;-63
2022/03/03 10:54:13;;;;;;;12.18;10.98;;;;;;;4.72;50.28;94626.22;5098229;28;20176;-63
2022/03/03 10:56:44;;;;;;;13.32;12.13;;;;;;;4.75;51.17;94639.22;5098504;28;20184;-63
2022/03/03 10:59:17;;;;;;;13.30;12.02;;;;;;;4.76;50.90;94632.63;5098227;28;20188;-63
2022/03/03 11:01:44;;;;;;;13.13;11.88;;;;;;;4.77;51.85;94628.78;5097132;28;20195;-63
2022/03/03 11:04:16;;;;;;;13.85;12.45;;;;;;;4.82;51.57;94634.03;5097135;28;20220;-63
2022/03/03 11:06:43;;;;;;;12.00;11.00;;;;;;;4.82;51.12;94635.97;5098169;28;20185;-63
2022/03/03 11:09:10;;;;;;;12.52;11.43;;;;;;;4.83;51.38;94632.13;5097218;28;20296;-63
2022/03/03 11:11:37;;;;;;;12.68;11.57;;;;;;;4.81;49.80;94628.91;5096691;28;20206;-63
2022/03/03 11:14:04;;;;;;;12.73;11.63;;;;;;;4.87;49.47;94630.34;5097896;28;20187;-63
2022/03/03 11:16:33;;;;;;;12.75;11.65;;;;;;;4.89;50.54;94630.81;5097104;28;20197;-63
2022/03/03 11:19:00;;;;;;;13.50;12.25;;;;;;;4.94;50.34;94621.63;5097805;28;20177;-63
2022/03/03 11:21:27;;;;;;;13.15;12.02;;;;;;;4.98;50.03;94630.78;5096704;28;20197;-63
2022/03/03 11:23:56;;;;;;;12.63;11.52;;;;;;;4.97;50.41;94627.22;5097601;28;20216;-63
2022/03/03 11:26:24;;;;;;;12.40;11.23;;;;;;;4.95;47.75;94620.50;5098081;28;20211;-63
2022/03/03 11:29:02;;;;;;;12.93;11.73;;;;;;;5.00;50.41;94632.03;5097610;28;20200;-63